Bonanza, Arkansas
Current Conditions -  °F | °C
As of 10:45 AM on Saturday 22 Nov 2014 (Local Time) from KFSM Reporting Station
Light Rain Light Rain  
Wind Chill: 53°   Ceiling: 600
Heat Index: 53°   Visibility: 4mi
Dew Point: 52°   Wind: 10mph
Humidity: 96%   Direction: 40°NE
Pressure: 30.11"   Gusts: NA
Location:  35.2504°N, 94.3714°W
Report Text: KFSM 221645Z 04009KT 4SM -RA BR BKN006 BKN010 OVC021 12/11 A3011 RMK AO2 P0001 T01170111
Loading
Personal Weather Stations






























Interactive Weather Map New forecast layout! Learn more

10-Day Weather Forecast

Advertisements
Track Severe Weather on mobile